createdAt,value
2022-10-23T00:04:15.407Z,12.88
2022-10-23T00:09:16.398Z,13.18
2022-10-23T00:14:13.894Z,12.25
2022-10-23T00:19:10.996Z,12.65
2022-10-23T00:29:08.051Z,12.80
2022-10-23T00:34:07.597Z,13.75
2022-10-23T00:39:05.499Z,13.40
2022-10-23T00:44:08.083Z,12.40
2022-10-23T00:49:06.063Z,12.45
2022-10-23T00:54:23.972Z,13.95
2022-10-23T00:59:23.145Z,11.38
2022-10-23T01:04:22.011Z,11.55
2022-10-23T01:09:26.201Z,11.48
2022-10-23T01:14:32.057Z,11.90
2022-10-23T01:19:43.111Z,10.80
2022-10-23T01:24:51.160Z,10.77
2022-10-23T01:29:59.218Z,11.90
2022-10-23T01:35:07.774Z,10.85
2022-10-23T01:40:11.605Z,10.88
2022-10-23T01:45:13.729Z,9.90
2022-10-23T01:50:15.536Z,9.32
2022-10-23T01:55:16.513Z,11.10
2022-10-23T02:00:17.749Z,11.25
2022-10-23T02:05:26.593Z,11.25
2022-10-23T02:10:32.454Z,10.48
2022-10-23T02:15:36.036Z,11.93
2022-10-23T02:20:38.387Z,12.20
2022-10-23T02:25:41.336Z,10.55
2022-10-23T02:30:44.220Z,10.27
2022-10-23T02:35:43.337Z,11.37
2022-10-23T02:40:57.319Z,11.55
2022-10-23T02:46:08.543Z,11.38
2022-10-23T02:51:12.345Z,11.98
2022-10-23T02:56:18.451Z,11.68
2022-10-23T03:01:20.163Z,11.88
2022-10-23T03:06:18.923Z,10.48
2022-10-23T03:11:16.106Z,10.18
2022-10-23T03:16:13.187Z,9.35
2022-10-23T03:21:10.986Z,9.90
2022-10-23T03:26:08.628Z,9.45
2022-10-23T03:31:10.918Z,9.73
2022-10-23T03:36:10.510Z,10.02
2022-10-23T03:41:07.602Z,10.60
2022-10-23T03:46:08.643Z,10.70
2022-10-23T03:51:06.715Z,11.70
2022-10-23T03:56:05.211Z,13.63
2022-10-23T04:01:03.681Z,13.45
2022-10-23T04:06:00.758Z,13.52
2022-10-23T04:11:00.026Z,11.57
2022-10-23T04:16:05.833Z,11.32
2022-10-23T04:21:03.685Z,13.20
2022-10-23T04:26:00.837Z,12.25
2022-10-23T04:30:57.899Z,12.80
2022-10-23T04:35:58.593Z,10.70
2022-10-23T04:40:55.747Z,11.48
2022-10-23T04:45:53.672Z,12.05
2022-10-23T04:50:59.767Z,12.07
2022-10-23T04:56:17.898Z,12.73
2022-10-23T05:01:28.619Z,10.20
2022-10-23T05:06:27.289Z,9.63
2022-10-23T05:11:56.002Z,13.60
2022-10-23T05:16:59.455Z,9.95
2022-10-23T05:21:57.914Z,9.63
2022-10-23T05:27:06.613Z,8.45
2022-10-23T05:32:12.533Z,11.38
2022-10-23T05:37:15.814Z,10.50
2022-10-23T05:42:16.169Z,10.10
2022-10-23T05:47:16.626Z,11.77
2022-10-23T05:52:48.496Z,10.23
2022-10-23T05:58:43.210Z,10.98
2022-10-23T06:03:58.881Z,9.68
2022-10-23T06:09:18.461Z,8.75
2022-10-23T06:14:20.344Z,9.05
2022-10-23T06:19:18.843Z,8.57
2022-10-23T06:24:38.929Z,8.35
2022-10-23T06:29:41.584Z,9.80
2022-10-23T06:34:49.907Z,8.60
2022-10-23T06:39:47.575Z,8.50
2022-10-23T06:44:47.823Z,8.18
2022-10-23T06:49:53.524Z,8.60
2022-10-23T06:55:04.272Z,7.70
2022-10-23T07:00:06.574Z,6.78
2022-10-23T07:05:32.231Z,6.63
2022-10-23T07:11:16.596Z,5.32
2022-10-23T07:16:29.376Z,4.82
2022-10-23T07:21:27.025Z,4.47
2022-10-23T07:26:29.945Z,5.50
2022-10-23T07:31:30.384Z,4.20
2022-10-23T07:36:45.586Z,4.53
2022-10-23T07:41:43.081Z,4.40
2022-10-23T07:46:41.220Z,4.13
2022-10-23T07:52:13.003Z,3.75
2022-10-23T07:57:28.769Z,3.33
2022-10-23T08:02:38.136Z,3.67
2022-10-23T08:07:48.330Z,3.72
2022-10-23T08:12:47.130Z,3.35
2022-10-23T08:17:48.503Z,2.85
2022-10-23T08:22:57.848Z,3.15
2022-10-23T08:28:05.536Z,3.08
2022-10-23T08:33:14.688Z,3.63
2022-10-23T08:38:23.428Z,2.60
2022-10-23T08:43:46.530Z,3.10
2022-10-23T08:49:34.300Z,2.67
2022-10-23T08:54:43.428Z,3.05
2022-10-23T08:59:46.131Z,2.50
2022-10-23T09:04:47.403Z,2.67
2022-10-23T09:15:40.041Z,2.88
2022-10-23T09:20:40.433Z,2.20
2022-10-23T09:25:50.441Z,2.30
2022-10-23T09:31:07.901Z,2.33
2022-10-23T09:36:22.967Z,2.92
2022-10-23T09:41:27.443Z,2.30
2022-10-23T09:46:24.454Z,2.30
2022-10-23T09:51:22.529Z,2.30
2022-10-23T10:01:53.350Z,2.10
2022-10-23T10:07:20.057Z,3.50
2022-10-23T10:12:45.592Z,4.05
2022-10-23T10:17:57.168Z,2.60
2022-10-23T10:23:01.219Z,2.00
2022-10-23T10:28:15.908Z,1.98
2022-10-23T10:38:38.981Z,1.60
2022-10-23T10:43:43.928Z,2.00
2022-10-23T10:48:49.640Z,1.52
2022-10-23T10:54:18.172Z,1.50
2022-10-23T10:59:31.494Z,2.08
2022-10-23T11:04:39.044Z,1.80
2022-10-23T11:09:39.182Z,2.35
2022-10-23T11:14:36.155Z,1.88
2022-10-23T11:19:42.215Z,1.85
2022-10-23T11:25:07.476Z,2.00
2022-10-23T11:30:18.694Z,1.80
2022-10-23T11:35:30.148Z,1.77
2022-10-23T11:40:29.020Z,2.20
2022-10-23T11:45:42.102Z,2.30
2022-10-23T11:50:51.226Z,1.65
2022-10-23T11:56:30.658Z,1.55
2022-10-23T12:01:36.961Z,1.30
2022-10-23T12:06:40.474Z,1.48
2022-10-23T12:11:52.345Z,1.48
2022-10-23T12:16:49.269Z,1.70
2022-10-23T12:22:15.386Z,1.70
2022-10-23T12:27:35.650Z,1.52
2022-10-23T12:33:06.566Z,1.88
2022-10-23T12:38:13.838Z,2.20
2022-10-23T12:43:26.018Z,1.80
2022-10-23T12:48:24.561Z,2.47
2022-10-23T12:53:24.063Z,2.10
2022-10-23T12:58:24.814Z,1.80
2022-10-23T13:03:36.845Z,2.03
2022-10-23T13:08:42.053Z,21.45
2022-10-23T13:13:59.221Z,5.82
2022-10-23T13:19:21.757Z,2.40
2022-10-23T13:24:23.060Z,2.45
2022-10-23T13:29:23.174Z,2.17
2022-10-23T13:34:27.615Z,2.08
2022-10-23T13:39:30.834Z,2.20
2022-10-23T13:44:28.603Z,1.83
2022-10-23T13:49:30.102Z,3.22
2022-10-23T13:54:38.262Z,2.47
2022-10-23T13:59:37.547Z,2.60
2022-10-23T14:04:46.907Z,2.25
2022-10-23T14:09:45.318Z,5.20
2022-10-23T14:14:45.567Z,1.92
2022-10-23T14:19:42.665Z,1.83
2022-10-23T14:24:39.754Z,2.00
2022-10-23T14:29:36.719Z,1.98
2022-10-23T14:34:35.981Z,2.30
2022-10-23T14:39:33.067Z,2.70
2022-10-23T14:44:30.069Z,2.88
2022-10-23T14:49:35.132Z,2.13
2022-10-23T14:54:38.104Z,2.08
2022-10-23T14:59:35.602Z,2.58
2022-10-23T15:04:47.466Z,2.83
2022-10-23T15:10:12.164Z,6.68
2022-10-23T15:15:12.642Z,3.95
2022-10-23T15:20:22.165Z,3.17
2022-10-23T15:25:19.831Z,2.72
2022-10-23T15:30:20.166Z,3.53
2022-10-23T15:35:44.179Z,6.65
2022-10-23T15:40:54.183Z,4.22
2022-10-23T15:45:51.489Z,3.30
2022-10-23T15:50:48.679Z,7.18
2022-10-23T15:55:51.880Z,4.18
2022-10-23T16:00:51.602Z,3.92
2022-10-23T16:05:51.582Z,3.60
2022-10-23T16:10:49.526Z,3.88
2022-10-23T16:16:07.246Z,4.47
2022-10-23T16:21:38.844Z,5.22
2022-10-23T16:26:38.517Z,3.92
2022-10-23T16:31:38.621Z,3.65
2022-10-23T16:42:47.467Z,2.65
2022-10-23T16:48:02.474Z,3.88
2022-10-23T16:59:19.116Z,6.03
2022-10-23T17:04:21.718Z,3.97
2022-10-23T17:09:24.048Z,3.28
2022-10-23T17:14:28.593Z,4.05
2022-10-23T17:19:47.073Z,4.27
2022-10-23T17:24:47.416Z,4.18
2022-10-23T17:29:54.805Z,2.65
2022-10-23T17:35:09.228Z,3.60
2022-10-23T17:40:07.923Z,3.15
2022-10-23T17:45:09.548Z,3.17
2022-10-23T17:50:18.693Z,3.60
2022-10-23T17:55:18.486Z,4.90
2022-10-23T18:00:18.295Z,3.47
2022-10-23T18:05:15.564Z,3.10
2022-10-23T18:10:13.102Z,2.65
2022-10-23T18:15:13.297Z,2.78
2022-10-23T18:20:15.204Z,2.90
2022-10-23T18:25:13.774Z,3.75
2022-10-23T18:30:14.594Z,3.95
2022-10-23T18:35:34.294Z,3.53
2022-10-23T18:40:31.767Z,4.00
2022-10-23T18:45:29.027Z,3.53
2022-10-23T18:50:30.286Z,4.15
2022-10-23T19:00:41.482Z,4.25
2022-10-23T19:05:46.163Z,3.90
2022-10-23T19:10:45.143Z,3.78
2022-10-23T19:15:47.434Z,4.05
2022-10-23T19:20:47.974Z,4.07
2022-10-23T19:25:51.018Z,4.13
2022-10-23T19:30:58.474Z,3.55
2022-10-23T19:36:05.381Z,5.57
2022-10-23T19:41:12.063Z,4.10
2022-10-23T19:46:14.476Z,5.30
2022-10-23T19:51:13.194Z,4.18
2022-10-23T19:56:12.506Z,3.60
2022-10-23T20:01:15.763Z,3.95
2022-10-23T20:06:15.168Z,4.38
2022-10-23T20:11:20.449Z,6.13
2022-10-23T20:16:21.437Z,4.65
2022-10-23T20:21:21.102Z,4.68
2022-10-23T20:26:21.415Z,4.43
2022-10-23T20:31:19.896Z,5.28
2022-10-23T20:36:26.652Z,4.43
2022-10-23T20:41:26.479Z,5.38
2022-10-23T20:46:23.773Z,5.28
2022-10-23T20:51:22.896Z,6.03
2022-10-23T20:56:23.405Z,5.28
2022-10-23T21:01:20.391Z,5.78
2022-10-23T21:06:18.509Z,4.60
2022-10-23T21:16:26.103Z,3.22
2022-10-23T21:21:26.561Z,3.37
2022-10-23T21:26:24.601Z,4.30
2022-10-23T21:31:25.375Z,4.30
2022-10-23T21:36:25.592Z,4.15
2022-10-23T21:41:33.405Z,4.20
2022-10-23T21:46:32.530Z,4.47
2022-10-23T21:51:33.417Z,3.97
2022-10-23T21:56:35.350Z,4.40
2022-10-23T22:01:33.445Z,4.00
2022-10-23T22:06:40.668Z,4.57
2022-10-23T22:11:39.137Z,4.47
2022-10-23T22:16:44.460Z,5.15
2022-10-23T22:21:41.885Z,4.78
2022-10-23T22:26:41.131Z,4.88
2022-10-23T22:31:39.458Z,4.22
2022-10-23T22:36:37.150Z,3.85
2022-10-23T22:41:35.038Z,4.00
2022-10-23T22:46:34.850Z,4.47
2022-10-23T22:51:31.754Z,5.10
2022-10-23T22:56:32.402Z,5.32
2022-10-23T23:01:33.822Z,4.93
2022-10-23T23:06:33.140Z,4.72
2022-10-23T23:11:37.100Z,5.50
2022-10-23T23:16:42.766Z,5.03
2022-10-23T23:21:40.506Z,4.82
2022-10-23T23:26:37.309Z,4.68
2022-10-23T23:31:34.223Z,4.75
2022-10-23T23:36:31.950Z,4.85
2022-10-23T23:41:45.101Z,4.28
2022-10-23T23:46:53.619Z,4.78
2022-10-23T23:51:50.745Z,4.47
2022-10-23T23:56:49.837Z,4.57
